Time;durP1;ratioP1;P1;durP2;ratioP2;P2;SDS_P1;SDS_P2;PMS_P1;PMS_P2;Temp;Humidity;BMP_temperature;BMP_pressure;BME280_temperature;BME280_humidity;BME280_pressure;Samples;Min_cycle;Max_cycle;Signal;HPM_P1;HPM_P2
2024/03/31 00:02:22;;;;;;;;;;;;;;;15.85;45.45;100748.38;5037215;28;1075;-48
2024/03/31 00:04:48;;;;;;;;;;;;;;;16.96;47.12;100752.00;5037339;28;1114;-49
2024/03/31 00:07:14;;;;;;;;;;;;;;;16.38;47.30;100750.00;5037461;28;1099;-48
2024/03/31 00:09:39;;;;;;;;;;;;;;;16.05;46.93;100746.97;5037470;28;1215;-49
2024/03/31 00:12:05;;;;;;;;;;;;;;;15.84;46.08;100747.50;5037423;28;1917;-47
2024/03/31 00:14:32;;;;;;;;;;;;;;;16.22;46.91;100750.22;5037456;28;1071;-48
2024/03/31 00:16:58;;;;;;;;;;;;;;;16.65;46.97;100739.16;5037072;28;1063;-48
2024/03/31 00:19:23;;;;;;;;;;;;;;;16.10;47.50;100751.97;5037321;28;1124;-50
2024/03/31 00:21:49;;;;;;;;;;;;;;;17.51;46.98;100750.59;5037261;28;1123;-49
2024/03/31 00:24:15;;;;;;;;;;;;;;;16.43;48.17;100747.88;5037247;28;1136;-48
2024/03/31 00:26:41;;;;;;;;;;;;;;;16.15;47.49;100740.06;5036975;28;1142;-53
2024/03/31 00:29:06;;;;;;;;;;;;;;;16.60;47.90;100749.28;5037010;28;1156;-52
2024/03/31 00:31:32;;;;;;;;;;;;;;;16.64;47.75;100748.09;5052274;28;1918;-47
2024/03/31 00:33:57;;;;;;;;;;;;;;;16.24;47.63;100740.38;5036779;28;1052;-50
2024/03/31 00:36:22;;;;;;;;;;;;;;;17.55;47.38;100730.75;5036705;28;1069;-48
2024/03/31 00:38:48;;;;;;;;;;;;;;;16.64;48.02;100734.81;5037058;28;1107;-45
2024/03/31 00:41:13;;;;;;;;;;;;;;;16.24;47.57;100729.75;5036959;28;1135;-48
2024/03/31 00:43:39;;;;;;;;;;;;;;;16.45;47.75;100726.50;5019146;28;1135;-49
2024/03/31 00:46:05;;;;;;;;;;;;;;;16.90;47.80;100733.81;5036865;28;1171;-50
2024/03/31 00:48:31;;;;;;;;;;;;;;;16.30;47.71;100739.91;5036954;28;1079;-48
2024/03/31 00:50:56;;;;;;;;;;;;;;;16.10;46.76;100726.28;5019026;28;1051;-51
2024/03/31 00:53:22;;;;;;;;;;;;;;;16.58;47.36;100729.13;5036718;28;1906;-49
2024/03/31 00:55:47;;;;;;;;;;;;;;;16.80;47.71;100733.66;5035991;28;1092;-50
2024/03/31 00:58:13;;;;;;;;;;;;;;;16.23;47.73;100734.19;5018569;28;1067;-50
2024/03/31 01:00:39;;;;;;;;;;;;;;;16.07;46.44;100726.50;5018869;28;1314;-49
2024/03/31 01:03:04;;;;;;;;;;;;;;;17.54;46.85;100722.91;5036422;28;1072;-47
2024/03/31 01:05:30;;;;;;;;;;;;;;;16.43;47.76;100720.47;5018852;28;1155;-50
2024/03/31 01:07:55;;;;;;;;;;;;;;;16.17;47.06;100718.72;5036232;28;1064;-51
2024/03/31 01:10:21;;;;;;;;;;;;;;;16.25;47.35;100724.31;5018982;28;1183;-49
2024/03/31 01:12:46;;;;;;;;;;;;;;;17.12;47.38;100713.63;5018527;28;1898;-47
2024/03/31 01:15:17;;;;;;;;;;;;;;;16.35;47.71;100724.50;5018766;28;1313;-46
2024/03/31 01:17:42;;;;;;;;;;;;;;;17.20;47.93;100731.69;5035973;28;1059;-47
2024/03/31 01:20:08;;;;;;;;;;;;;;;16.74;47.75;100734.13;5018062;28;1028;-46
2024/03/31 01:22:33;;;;;;;;;;;;;;;16.20;47.54;100725.63;5018655;28;1205;-48
2024/03/31 01:24:59;;;;;;;;;;;;;;;16.15;46.65;100721.50;5036204;28;1140;-47
2024/03/31 01:27:24;;;;;;;;;;;;;;;16.99;46.99;100725.19;5018032;28;1107;-50
2024/03/31 01:29:50;;;;;;;;;;;;;;;16.22;47.46;100724.56;5018815;28;1361;-47
2024/03/31 01:32:15;;;;;;;;;;;;;;;17.35;47.36;100727.00;5035685;28;1980;-48
2024/03/31 01:34:44;;;;;;;;;;;;;;;17.10;47.88;100713.75;5035835;28;1079;-49
2024/03/31 01:37:10;;;;;;;;;;;;;;;16.46;48.06;100713.13;5035663;28;1107;-48
2024/03/31 01:39:35;;;;;;;;;;;;;;;16.11;47.58;100722.69;5018131;28;1226;-51
2024/03/31 01:42:01;;;;;;;;;;;;;;;17.18;47.87;100723.81;5018246;28;1103;-48
2024/03/31 01:44:26;;;;;;;;;;;;;;;16.50;47.89;100713.72;5035564;28;1096;-50
2024/03/31 01:46:52;;;;;;;;;;;;;;;16.06;47.65;100711.53;5018402;28;1230;-50
2024/03/31 01:49:17;;;;;;;;;;;;;;;16.92;47.70;100715.09;5001652;28;1166;-53
2024/03/31 01:51:43;;;;;;;;;;;;;;;16.26;47.51;100710.13;5018274;28;1907;-50
2024/03/31 01:54:09;;;;;;;;;;;;;;;16.35;47.67;100708.56;5018486;28;1178;-54
2024/03/31 01:56:37;;;;;;;;;;;;;;;17.03;47.41;100704.53;5017769;28;873;-47
2024/03/31 01:59:03;;;;;;;;;;;;;;;16.30;47.67;100709.88;5035968;28;1075;-52
2024/03/31 02:01:28;;;;;;;;;;;;;;;16.19;47.30;100715.97;5035882;28;1082;-51
2024/03/31 02:03:54;;;;;;;;;;;;;;;16.84;47.47;100707.72;5018289;28;1158;-49
2024/03/31 02:06:19;;;;;;;;;;;;;;;16.20;47.29;100707.88;5018380;28;1094;-47
2024/03/31 02:08:45;;;;;;;;;;;;;;;17.16;47.50;100711.59;5038874;28;1146;-53
2024/03/31 02:11:10;;;;;;;;;;;;;;;16.68;47.79;100711.53;5039712;28;1063;-50
2024/03/31 02:13:36;;;;;;;;;;;;;;;16.32;47.23;100713.25;5021951;28;1903;-47
2024/03/31 02:16:01;;;;;;;;;;;;;;;16.12;46.52;100711.09;5021895;28;1056;-48
2024/03/31 02:18:27;;;;;;;;;;;;;;;15.98;46.10;100713.88;5039498;28;1051;-47
2024/03/31 02:20:52;;;;;;;;;;;;;;;16.77;47.17;100715.31;5005266;28;1191;-45
2024/03/31 02:23:18;;;;;;;;;;;;;;;16.21;47.61;100728.19;5039712;28;1151;-47
2024/03/31 02:25:43;;;;;;;;;;;;;;;18.11;46.78;100729.09;5021775;28;1155;-50
2024/03/31 02:28:09;;;;;;;;;;;;;;;17.00;48.00;100728.66;5039553;28;1206;-53
2024/03/31 02:30:34;;;;;;;;;;;;;;;16.49;47.90;100730.63;5021524;28;1372;-50
2024/03/31 02:33:00;;;;;;;;;;;;;;;16.28;46.74;100732.06;5021370;28;1983;-49
2024/03/31 02:35:25;;;;;;;;;;;;;;;16.08;46.51;100722.03;5021670;28;1182;-51
2024/03/31 02:37:51;;;;;;;;;;;;;;;15.97;46.03;100726.28;5039387;28;1218;-51
2024/03/31 02:40:16;;;;;;;;;;;;;;;17.34;47.50;100718.19;5021420;28;1319;-51
2024/03/31 02:42:42;;;;;;;;;;;;;;;16.44;47.65;100732.75;5021548;28;1226;-54
2024/03/31 02:45:09;;;;;;;;;;;;;;;16.61;48.16;100727.09;5039221;28;1862;-52
2024/03/31 02:47:35;;;;;;;;;;;;;;;17.24;47.65;100726.00;5039357;28;1083;-48
2024/03/31 02:50:03;;;;;;;;;;;;;;;16.60;47.61;100721.88;5021456;28;1517;-48
2024/03/31 02:52:28;;;;;;;;;;;;;;;16.80;48.39;100722.22;5021356;28;1910;-48
2024/03/31 02:54:54;;;;;;;;;;;;;;;16.91;48.07;100727.56;5021779;28;1115;-48
2024/03/31 02:57:21;;;;;;;;;;;;;;;16.33;47.90;100729.06;5021009;28;1100;-49
2024/03/31 02:59:47;;;;;;;;;;;;;;;17.53;47.58;100727.41;5054477;28;1358;-51
2024/03/31 03:02:13;;;;;;;;;;;;;;;16.64;47.91;100731.31;5020886;28;1376;-54
2024/03/31 03:04:39;;;;;;;;;;;;;;;16.33;47.09;100733.56;5020889;28;1257;-50
2024/03/31 03:07:04;;;;;;;;;;;;;;;16.19;46.70;100731.88;5039124;28;1211;-49
2024/03/31 03:09:30;;;;;;;;;;;;;;;16.01;45.76;100737.56;5021071;28;1098;-49
2024/03/31 03:11:55;;;;;;;;;;;;;;;17.35;47.13;100733.16;5020778;28;2047;-50
2024/03/31 03:14:21;;;;;;;;;;;;;;;16.54;47.58;100741.75;5021230;28;1159;-51
2024/03/31 03:16:47;;;;;;;;;;;;;;;16.21;46.71;100736.13;5021123;28;1283;-49
2024/03/31 03:19:12;;;;;;;;;;;;;;;17.19;47.00;100737.94;5020407;28;1257;-49
2024/03/31 03:21:38;;;;;;;;;;;;;;;16.40;47.49;100738.31;5020672;28;1083;-47
2024/03/31 03:24:03;;;;;;;;;;;;;;;16.45;47.39;100739.78;5038439;28;1222;-50
2024/03/31 03:26:29;;;;;;;;;;;;;;;17.20;46.89;100737.81;5020801;28;1076;-50
2024/03/31 03:28:54;;;;;;;;;;;;;;;16.35;47.17;100751.06;5020932;28;1274;-48
2024/03/31 03:31:20;;;;;;;;;;;;;;;16.21;46.68;100740.59;5020816;28;1181;-53
2024/03/31 03:33:49;;;;;;;;;;;;;;;16.56;47.63;100734.53;5020609;28;1985;-46
2024/03/31 03:36:14;;;;;;;;;;;;;;;16.65;47.35;100738.31;5026082;28;1649;-47
2024/03/31 03:38:40;;;;;;;;;;;;;;;16.25;46.77;100740.25;5037279;28;1220;-46
2024/03/31 03:41:08;;;;;;;;;;;;;;;16.60;47.48;100736.00;5021067;28;1162;-49
2024/03/31 03:43:33;;;;;;;;;;;;;;;16.68;47.46;100739.91;5036698;28;1139;-46
2024/03/31 03:46:05;;;;;;;;;;;;;;;17.17;47.57;100747.84;5036771;28;1334;-49
2024/03/31 03:48:31;;;;;;;;;;;;;;;18.27;46.20;100746.50;5037196;28;1170;-46
2024/03/31 03:51:00;;;;;;;;;;;;;;;15.06;54.95;100750.94;5037228;28;1243;-46
2024/03/31 03:53:26;;;;;;;;;;;;;;;18.17;48.46;100746.41;5070012;28;1902;-44
2024/03/31 03:55:51;;;;;;;;;;;;;;;15.81;52.92;100746.88;5034445;28;1286;-60
2024/03/31 03:58:17;;;;;;;;;;;;;;;16.59;52.93;100749.38;5036382;28;1591;-52
2024/03/31 04:00:43;;;;;;;;;;;;;;;18.52;47.79;100754.34;5039136;28;1131;-50
2024/03/31 04:03:08;;;;;;;;;;;;;;;16.95;49.64;100750.28;5037955;28;1091;-50
2024/03/31 04:05:34;;;;;;;;;;;;;;;16.52;48.87;100765.78;5036545;28;1339;-52
2024/03/31 04:07:59;;;;;;;;;;;;;;;17.24;47.97;100760.56;5033358;28;1811;-50
2024/03/31 04:10:25;;;;;;;;;;;;;;;17.84;46.36;100770.22;5067472;28;1478;-48
2024/03/31 04:12:51;;;;;;;;;;;;;;;17.42;47.11;100765.44;5039475;28;1906;-51
2024/03/31 04:15:17;;;;;;;;;;;;;;;17.24;47.45;100763.22;5080538;28;1129;-48
2024/03/31 04:17:44;;;;;;;;;;;;;;;17.04;47.81;100759.38;5031766;28;1692;-48
2024/03/31 04:20:10;;;;;;;;;;;;;;;16.83;48.00;100761.84;5038715;28;921;-51
2024/03/31 04:22:35;;;;;;;;;;;;;;;16.75;48.51;100773.00;5038138;28;1056;-50
2024/03/31 04:25:01;;;;;;;;;;;;;;;16.63;48.84;100772.13;5048118;28;1091;-49
2024/03/31 04:27:26;;;;;;;;;;;;;;;16.45;48.99;100769.81;5041154;28;1227;-53
2024/03/31 04:29:52;;;;;;;;;;;;;;;16.34;49.44;100770.59;5036075;28;1244;-48
2024/03/31 04:32:17;;;;;;;;;;;;;;;16.26;49.39;100778.28;5033899;28;1910;-55
2024/03/31 04:34:43;;;;;;;;;;;;;;;16.17;49.46;100771.81;5037464;28;1592;-52
2024/03/31 04:37:09;;;;;;;;;;;;;;;16.09;49.42;100760.88;5029903;28;1152;-51
2024/03/31 04:39:34;;;;;;;;;;;;;;;15.96;50.13;100761.72;5031558;28;1241;-52
2024/03/31 04:42:00;;;;;;;;;;;;;;;17.12;48.31;100767.66;5040614;28;1317;-54
2024/03/31 04:44:26;;;;;;;;;;;;;;;17.35;47.42;100762.41;5035657;28;1202;-50
2024/03/31 04:46:52;;;;;;;;;;;;;;;16.69;49.17;100763.69;5037097;28;862;-50
2024/03/31 04:49:18;;;;;;;;;;;;;;;16.47;49.34;100764.41;5035704;28;1383;-53
2024/03/31 04:51:48;;;;;;;;;;;;;;;16.17;50.10;100758.53;5035449;28;1992;-51
2024/03/31 04:54:18;;;;;;;;;;;;;;;16.14;49.80;100762.25;5069594;28;1509;-54
2024/03/31 04:56:46;;;;;;;;;;;;;;;16.92;48.92;100768.25;5021619;28;1322;-47
2024/03/31 04:59:11;;;;;;;;;;;;;;;17.49;47.22;100758.69;5035508;28;1149;-51
2024/03/31 05:01:37;;;;;;;;;;;;;;;16.79;48.94;100763.00;5035670;28;1308;-47
2024/03/31 05:04:02;;;;;;;;;;;;;;;16.38;49.91;100769.41;5035868;28;1102;-50
2024/03/31 05:06:28;;;;;;;;;;;;;;;16.20;49.90;100773.41;5036475;28;1019;-47
2024/03/31 05:08:53;;;;;;;;;;;;;;;16.09;50.00;100779.47;5035259;28;1163;-50
2024/03/31 05:11:19;;;;;;;;;;;;;;;16.73;49.58;100766.97;5035655;28;1111;-53
2024/03/31 05:13:45;;;;;;;;;;;;;;;17.78;46.89;100769.84;5051466;28;1965;-47
2024/03/31 05:16:14;;;;;;;;;;;;;;;16.82;48.78;100773.41;5034935;28;1025;-49
2024/03/31 05:18:40;;;;;;;;;;;;;;;16.50;49.51;100773.00;5034923;28;1221;-49
2024/03/31 05:21:11;;;;;;;;;;;;;;;16.26;49.99;100771.16;5035250;28;1205;-49
2024/03/31 05:23:38;;;;;;;;;;;;;;;16.19;50.24;100769.91;5036523;28;1087;-51
2024/03/31 05:26:09;;;;;;;;;;;;;;;17.29;48.35;100770.00;5035246;28;1205;-51
2024/03/31 05:28:34;;;;;;;;;;;;;;;17.15;48.00;100763.91;5068457;28;1832;-49
2024/03/31 05:31:01;;;;;;;;;;;;;;;16.63;49.22;100772.94;5035443;28;1080;-48
2024/03/31 05:33:30;;;;;;;;;;;;;;;16.36;50.22;100767.84;5034830;28;1910;-50
2024/03/31 05:35:57;;;;;;;;;;;;;;;16.24;50.41;100770.41;5034908;28;1215;-50
2024/03/31 05:38:23;;;;;;;;;;;;;;;16.13;50.52;100762.38;5035111;28;1328;-48
2024/03/31 05:40:56;;;;;;;;;;;;;;;17.61;47.35;100762.22;5035343;28;1108;-49
2024/03/31 05:43:21;;;;;;;;;;;;;;;17.12;48.39;100764.13;5034265;28;1344;-50
2024/03/31 05:45:47;;;;;;;;;;;;;;;16.64;49.40;100766.69;5032252;28;1273;-47
2024/03/31 05:48:12;;;;;;;;;;;;;;;16.38;49.97;100758.78;5044109;28;1402;-45
2024/03/31 05:50:44;;;;;;;;;;;;;;;16.18;50.54;100762.03;5034860;28;2045;-52
2024/03/31 05:53:10;;;;;;;;;;;;;;;16.85;49.56;100765.22;5037963;28;1907;-52
2024/03/31 05:55:35;;;;;;;;;;;;;;;17.59;47.38;100771.28;5038492;28;1079;-53
2024/03/31 05:58:01;;;;;;;;;;;;;;;16.81;49.25;100767.25;5034558;28;1321;-52
2024/03/31 06:00:26;;;;;;;;;;;;;;;16.50;49.73;100775.66;5037115;28;1272;-50
2024/03/31 06:02:52;;;;;;;;;;;;;;;16.34;50.26;100769.75;5045039;28;1496;-52
2024/03/31 06:05:18;;;;;;;;;;;;;;;16.17;50.62;100774.47;5050918;28;1281;-50
2024/03/31 06:07:47;;;;;;;;;;;;;;;16.27;50.69;100780.81;5045241;28;1178;-49
2024/03/31 06:10:13;;;;;;;;;;;;;;;17.68;47.55;100778.56;5034624;28;1457;-47
2024/03/31 06:12:38;;;;;;;;;;;;;;;17.06;48.53;100775.22;5068054;28;1910;-51
2024/03/31 06:15:04;;;;;;;;;;;;;;;16.65;49.75;100778.16;5035062;28;1323;-54
2024/03/31 06:17:30;;;;;;;;;;;;;;;16.43;50.15;100784.19;5036199;28;1195;-56
2024/03/31 06:19:55;;;;;;;;;;;;;;;16.27;50.51;100779.97;5034788;28;1170;-48
2024/03/31 06:22:21;;;;;;;;;;;;;;;16.17;50.50;100779.75;5034616;28;1229;-48
2024/03/31 06:24:46;;;;;;;;;;;;;;;17.20;48.64;100777.69;5034599;28;1070;-49
2024/03/31 06:27:12;;;;;;;;;;;;;;;17.55;47.64;100780.47;5035815;28;1207;-49
2024/03/31 06:29:37;;;;;;;;;;;;;;;16.94;48.94;100784.94;5035199;28;1355;-48
2024/03/31 06:32:03;;;;;;;;;;;;;;;16.58;49.96;100788.38;5035990;28;1911;-53
2024/03/31 06:34:28;;;;;;;;;;;;;;;16.38;50.28;100789.81;5034416;28;1189;-47
2024/03/31 06:36:54;;;;;;;;;;;;;;;16.48;50.33;100790.00;5034443;28;1199;-54
2024/03/31 06:39:19;;;;;;;;;;;;;;;17.87;47.26;100798.41;5035410;28;1123;-52
2024/03/31 06:41:45;;;;;;;;;;;;;;;17.11;48.54;100794.34;5034302;28;1428;-53
2024/03/31 06:44:11;;;;;;;;;;;;;;;16.70;49.75;100802.56;5034174;28;1409;-48
2024/03/31 06:46:37;;;;;;;;;;;;;;;16.49;49.96;100799.66;5035549;28;892;-44
2024/03/31 06:49:02;;;;;;;;;;;;;;;16.35;50.36;100798.00;5034185;28;1228;-48
2024/03/31 06:51:28;;;;;;;;;;;;;;;16.26;50.71;100803.03;5034580;28;1161;-48
2024/03/31 06:53:54;;;;;;;;;;;;;;;16.44;50.46;100799.13;5034466;28;1905;-48
2024/03/31 06:56:20;;;;;;;;;;;;;;;17.73;47.46;100796.81;5038287;28;1308;-48
2024/03/31 06:58:45;;;;;;;;;;;;;;;17.01;49.07;100791.50;5038443;28;1028;-48
2024/03/31 07:01:11;;;;;;;;;;;;;;;16.58;50.09;100792.84;5038076;28;1346;-51
2024/03/31 07:03:37;;;;;;;;;;;;;;;16.44;50.26;100794.69;5071257;28;1270;-47
2024/03/31 07:06:03;;;;;;;;;;;;;;;16.26;50.73;100794.19;5037757;28;1119;-48
2024/03/31 07:08:29;;;;;;;;;;;;;;;16.19;50.82;100798.22;5037313;28;1257;-54
2024/03/31 07:10:54;;;;;;;;;;;;;;;16.19;51.22;100806.19;5037903;28;1266;-54
2024/03/31 07:13:20;;;;;;;;;;;;;;;17.60;48.14;100794.28;5037744;28;1898;-51
2024/03/31 07:15:46;;;;;;;;;;;;;;;17.10;49.04;100800.66;5037561;28;1233;-55
2024/03/31 07:18:11;;;;;;;;;;;;;;;16.70;49.79;100805.22;5038996;28;1150;-56
2024/03/31 07:20:37;;;;;;;;;;;;;;;16.48;50.17;100800.63;5037218;28;1313;-55
2024/03/31 07:23:04;;;;;;;;;;;;;;;16.24;50.77;100801.41;5037586;28;1262;-52
2024/03/31 07:25:30;;;;;;;;;;;;;;;16.21;51.09;100798.97;5038680;28;1032;-54
2024/03/31 07:27:55;;;;;;;;;;;;;;;16.79;50.16;100806.38;5062752;28;1525;-47
2024/03/31 07:30:21;;;;;;;;;;;;;;;17.70;47.69;100805.88;5027622;28;1311;-52
2024/03/31 07:32:47;;;;;;;;;;;;;;;16.97;49.21;100809.47;5036399;28;1971;-57
2024/03/31 07:35:12;;;;;;;;;;;;;;;16.63;50.16;100807.47;5053673;28;1392;-51
2024/03/31 07:37:38;;;;;;;;;;;;;;;16.38;50.76;100806.59;5039418;28;968;-52
2024/03/31 07:40:04;;;;;;;;;;;;;;;16.24;50.74;100804.94;5037947;28;1044;-50
2024/03/31 07:42:29;;;;;;;;;;;;;;;16.22;51.16;100800.66;5038608;28;1191;-48
2024/03/31 07:44:55;;;;;;;;;;;;;;;17.13;49.27;100798.56;5036947;28;1027;-57
2024/03/31 07:47:20;;;;;;;;;;;;;;;17.41;48.28;100794.81;5041902;28;1481;-53
2024/03/31 07:49:46;;;;;;;;;;;;;;;16.76;49.95;100794.16;5041699;28;1254;-49
2024/03/31 07:52:11;;;;;;;;;;;;;;;16.53;50.44;100791.34;5038230;28;1910;-51
2024/03/31 07:54:37;;;;;;;;;;;;;;;16.40;50.94;100796.72;5037009;28;1111;-47
2024/03/31 07:57:02;;;;;;;;;;;;;;;16.17;51.16;100790.38;5038694;28;1128;-52
2024/03/31 07:59:28;;;;;;;;;;;;;;;16.13;51.38;100788.91;5037992;28;1023;-50
2024/03/31 08:01:54;;;;;;;;;;;;;;;16.77;50.33;100790.53;5037548;28;1134;-52
2024/03/31 08:04:20;;;;;;;;;;;;;;;17.81;47.53;100790.91;5040007;28;1359;-55
2024/03/31 08:06:45;;;;;;;;;;;;;;;17.01;49.21;100787.03;5043890;28;923;-55
2024/03/31 08:09:11;;;;;;;;;;;;;;;16.63;50.15;100791.53;5038131;28;1176;-56
2024/03/31 08:11:36;;;;;;;;;;;;;;;16.42;50.68;100788.63;5030348;28;1068;-51
2024/03/31 08:14:02;;;;;;;;;;;;;;;16.33;50.74;100786.66;5035845;28;1052;-51
2024/03/31 08:16:27;;;;;;;;;;;;;;;16.21;51.12;100780.41;5034684;28;1306;-50
2024/03/31 08:18:53;;;;;;;;;;;;;;;16.13;51.16;100789.75;5032560;28;1357;-54
2024/03/31 08:21:19;;;;;;;;;;;;;;;17.15;49.55;100779.84;5055049;28;971;-52
2024/03/31 08:23:44;;;;;;;;;;;;;;;17.56;48.05;100790.13;5040140;28;1210;-51
2024/03/31 08:26:10;;;;;;;;;;;;;;;16.85;49.82;100783.84;5043676;28;1170;-56
2024/03/31 08:28:35;;;;;;;;;;;;;;;16.52;50.73;100786.16;5033205;28;1080;-50
2024/03/31 08:31:01;;;;;;;;;;;;;;;16.37;50.79;100793.41;5033936;28;1346;-50
2024/03/31 08:33:26;;;;;;;;;;;;;;;16.20;51.36;100789.34;5033540;28;1925;-48
2024/03/31 08:35:52;;;;;;;;;;;;;;;16.13;51.45;100789.75;5036898;28;1285;-51
2024/03/31 08:38:18;;;;;;;;;;;;;;;17.25;49.17;100791.50;5040724;28;1203;-53
2024/03/31 08:40:44;;;;;;;;;;;;;;;17.39;48.52;100784.28;5035854;28;884;-55
2024/03/31 08:43:10;;;;;;;;;;;;;;;16.81;49.99;100792.97;5019373;28;1047;-52
2024/03/31 08:45:35;;;;;;;;;;;;;;;16.59;50.61;100791.88;5019778;28;1024;-50
2024/03/31 08:48:01;;;;;;;;;;;;;;;16.45;50.76;100783.09;5017994;28;1079;-52
2024/03/31 08:50:26;;;;;;;;;;;;;;;16.26;51.27;100784.44;5037642;28;2335;-57
2024/03/31 08:52:52;;;;;;;;;;;;;;;16.16;51.08;100776.25;5027471;28;1914;-50
2024/03/31 08:55:18;;;;;;;;;;;;;;;17.22;49.33;100782.91;5039840;28;936;-50
2024/03/31 08:57:43;;;;;;;;;;;;;;;17.56;48.00;100780.34;5032404;28;873;-50
2024/03/31 09:00:09;;;;;;;;;;;;;;;16.91;49.75;100778.06;5018872;28;1012;-53
2024/03/31 09:02:35;;;;;;;;;;;;;;;16.63;50.52;100777.44;5029547;28;1411;-54
2024/03/31 09:05:00;;;;;;;;;;;;;;;16.43;51.07;100770.91;5033380;28;1092;-60
2024/03/31 09:07:26;;;;;;;;;;;;;;;16.33;51.34;100771.53;5028956;28;881;-55
2024/03/31 09:09:52;;;;;;;;;;;;;;;16.23;51.42;100760.75;5037002;28;1107;-52
2024/03/31 09:12:17;;;;;;;;;;;;;;;16.23;51.09;100767.88;5036036;28;1906;-58
2024/03/31 09:14:43;;;;;;;;;;;;;;;17.29;49.32;100760.22;5037090;28;1031;-56
2024/03/31 09:17:08;;;;;;;;;;;;;;;17.31;48.83;100760.09;5033920;28;1130;-57
2024/03/31 09:19:34;;;;;;;;;;;;;;;16.77;50.30;100758.66;5036169;28;1151;-54
2024/03/31 09:22:00;;;;;;;;;;;;;;;16.50;50.83;100762.38;5036603;28;1028;-49
2024/03/31 09:24:26;;;;;;;;;;;;;;;16.40;50.95;100778.13;5036219;28;1220;-58
2024/03/31 09:26:51;;;;;;;;;;;;;;;16.27;51.34;100762.22;5021380;28;1345;-52
2024/03/31 09:29:17;;;;;;;;;;;;;;;16.15;51.74;100756.00;5036435;28;1459;-56
2024/03/31 09:31:42;;;;;;;;;;;;;;;16.14;51.30;100748.13;5036726;28;1976;-55
2024/03/31 09:34:08;;;;;;;;;;;;;;;17.02;50.01;100748.00;5036646;28;1027;-57
2024/03/31 09:36:37;;;;;;;;;;;;;;;17.50;48.50;100754.19;5038749;28;994;-56
2024/03/31 09:39:03;;;;;;;;;;;;;;;16.86;49.90;100756.28;5018931;28;1151;-56
2024/03/31 09:41:29;;;;;;;;;;;;;;;16.65;50.43;100749.78;5036525;28;1124;-56
2024/03/31 09:43:54;;;;;;;;;;;;;;;16.43;51.07;100745.22;5036350;28;1143;-53
2024/03/31 09:46:20;;;;;;;;;;;;;;;16.30;51.21;100742.56;5036537;28;1150;-53
2024/03/31 09:48:50;;;;;;;;;;;;;;;16.25;51.35;100748.22;5036161;28;916;-51
2024/03/31 09:51:17;;;;;;;;;;;;;;;16.16;51.67;100747.06;5018768;28;1056;-58
2024/03/31 09:53:45;;;;;;;;;;;;;;;16.94;50.37;100745.06;5009980;28;1906;-56
2024/03/31 09:56:11;;;;;;;;;;;;;;;17.69;48.15;100742.16;5036446;28;1223;-53
2024/03/31 09:58:36;;;;;;;;;;;;;;;16.95;49.84;100737.00;5018545;28;1155;-53
2024/03/31 10:01:05;;;;;;;;;;;;;;;16.68;50.43;100745.22;5035895;28;1120;-54
2024/03/31 10:03:31;;;;;;;;;;;;;;;16.56;51.00;100733.69;5036257;28;1106;-57
2024/03/31 10:05:57;;;;;;;;;;;;;;;16.39;51.37;100739.28;5035973;28;1060;-52
2024/03/31 10:08:26;;;;;;;;;;;;;;;16.33;51.07;100742.34;5010693;28;1286;-56
2024/03/31 10:10:51;;;;;;;;;;;;;;;16.22;51.62;100743.13;5046547;28;1345;-55
2024/03/31 10:13:17;;;;;;;;;;;;;;;16.15;51.41;100732.09;5048205;28;1976;-54
2024/03/31 10:15:43;;;;;;;;;;;;;;;16.72;50.72;100736.03;5051218;28;1167;-56
2024/03/31 10:18:08;;;;;;;;;;;;;;;17.65;48.31;100730.88;5050382;28;1297;-56
2024/03/31 10:20:34;;;;;;;;;;;;;;;16.94;49.85;100730.00;5035568;28;1087;-56
2024/03/31 10:22:59;;;;;;;;;;;;;;;16.60;50.89;100727.19;5036067;28;1149;-57
2024/03/31 10:25:27;;;;;;;;;;;;;;;16.48;50.75;100727.09;5017904;28;1075;-56
2024/03/31 10:27:53;;;;;;;;;;;;;;;16.39;51.34;100718.03;5037043;28;1120;-51
2024/03/31 10:30:18;;;;;;;;;;;;;;;16.27;51.59;100717.09;5039223;28;1181;-53
2024/03/31 10:32:45;;;;;;;;;;;;;;;16.22;51.49;100715.72;5044361;28;1971;-54
2024/03/31 10:35:10;;;;;;;;;;;;;;;16.16;51.55;100714.38;5041029;28;1240;-53
2024/03/31 10:37:35;;;;;;;;;;;;;;;16.13;51.75;100717.25;5021904;28;977;-53
2024/03/31 10:40:02;;;;;;;;;;;;;;;17.57;48.81;100709.38;5026007;28;1425;-53
2024/03/31 10:42:28;;;;;;;;;;;;;;;17.07;49.52;100711.31;5042443;28;1127;-54
2024/03/31 10:44:53;;;;;;;;;;;;;;;16.74;50.50;100700.44;5040230;28;1153;-55
2024/03/31 10:47:19;;;;;;;;;;;;;;;16.58;50.79;100705.22;5039277;28;1099;-56
2024/03/31 10:49:44;;;;;;;;;;;;;;;16.50;51.09;100705.75;5043044;28;1268;-53
2024/03/31 10:52:14;;;;;;;;;;;;;;;16.37;51.30;100706.66;5039580;28;1911;-54
2024/03/31 10:54:39;;;;;;;;;;;;;;;16.57;50.61;100696.38;5039275;28;1095;-52
2024/03/31 10:57:09;;;;;;;;;;;;;;;16.20;51.47;100702.56;5038331;28;1218;-52
2024/03/31 10:59:36;;;;;;;;;;;;;;;16.11;51.63;100696.13;5031910;28;1135;-51
2024/03/31 11:02:21;;;;;;;;;;;;;;;16.21;51.88;100701.63;5030811;28;1024;-51
2024/03/31 11:05:05;;;;;;;;;;;;;;;17.71;48.32;100698.50;5022215;28;1044;-51
2024/03/31 11:07:31;;;;;;;;;;;;;;;17.00;49.93;100699.44;5038468;28;951;-55
2024/03/31 11:09:57;;;;;;;;;;;;;;;16.65;50.66;100694.00;5039337;28;1123;-56
2024/03/31 11:12:24;;;;;;;;;;;;;;;16.49;51.31;100691.66;5038402;28;1906;-56
2024/03/31 11:14:50;;;;;;;;;;;;;;;16.35;51.69;100695.31;5039030;28;1056;-56
2024/03/31 11:17:16;;;;;;;;;;;;;;;16.28;51.62;100686.94;5049286;28;1107;-53
2024/03/31 11:19:41;;;;;;;;;;;;;;;16.16;52.15;100690.50;5038775;28;1060;-55
2024/03/31 11:22:07;;;;;;;;;;;;;;;16.16;51.83;100685.19;5021204;28;1196;-54
2024/03/31 11:24:33;;;;;;;;;;;;;;;16.19;51.83;100682.31;5038656;28;1144;-56
2024/03/31 11:26:59;;;;;;;;;;;;;;;17.57;49.05;100680.09;5023512;28;1407;-57
2024/03/31 11:29:24;;;;;;;;;;;;;;;17.18;49.61;100680.44;5038895;28;1127;-55
2024/03/31 11:31:50;;;;;;;;;;;;;;;16.76;50.75;100677.28;5038719;28;1906;-54
2024/03/31 11:34:15;;;;;;;;;;;;;;;16.56;51.18;100672.59;5038612;28;1191;-56
2024/03/31 11:36:41;;;;;;;;;;;;;;;16.45;51.65;100679.53;5029845;28;1198;-57
2024/03/31 11:39:07;;;;;;;;;;;;;;;16.31;51.67;100675.25;5038667;28;1157;-58
2024/03/31 11:41:32;;;;;;;;;;;;;;;16.23;51.77;100670.50;5038115;28;1087;-56
2024/03/31 11:43:58;;;;;;;;;;;;;;;16.13;51.90;100666.84;5034119;28;1377;-56
2024/03/31 11:46:23;;;;;;;;;;;;;;;16.06;52.12;100670.88;5037068;28;913;-57
2024/03/31 11:48:49;;;;;;;;;;;;;;;16.08;51.95;100680.41;5031046;28;1036;-56
2024/03/31 11:51:14;;;;;;;;;;;;;;;17.33;49.78;100676.56;5037979;28;1103;-57
2024/03/31 11:53:40;;;;;;;;;;;;;;;17.39;49.25;100672.59;5038415;28;1911;-55
2024/03/31 11:56:06;;;;;;;;;;;;;;;16.85;50.47;100662.44;5038101;28;1098;-58
2024/03/31 11:58:35;;;;;;;;;;;;;;;16.59;51.38;100661.75;5037813;28;1043;-56
2024/03/31 12:01:00;;;;;;;;;;;;;;;16.42;51.71;100663.84;5037436;28;1079;-53
2024/03/31 12:03:26;;;;;;;;;;;;;;;16.34;51.98;100666.22;5035490;28;1475;-50
2024/03/31 12:05:51;;;;;;;;;;;;;;;16.27;52.11;100658.72;5034893;28;1330;-53
2024/03/31 12:08:18;;;;;;;;;;;;;;;16.19;52.09;100653.13;5027958;28;1219;-48
2024/03/31 12:10:46;;;;;;;;;;;;;;;16.13;51.85;100657.03;5066384;28;1076;-48
2024/03/31 12:13:12;;;;;;;;;;;;;;;16.08;52.16;100651.22;5037743;28;1910;-49
2024/03/31 12:15:37;;;;;;;;;;;;;;;16.58;51.63;100644.13;5032286;28;1343;-50
2024/03/31 12:18:03;;;;;;;;;;;;;;;17.74;48.78;100650.38;5037705;28;1051;-54
2024/03/31 12:20:28;;;;;;;;;;;;;;;17.03;50.26;100646.06;5037668;28;1035;-53
2024/03/31 12:22:54;;;;;;;;;;;;;;;16.74;51.01;100646.47;5038044;28;1047;-49
2024/03/31 12:25:20;;;;;;;;;;;;;;;16.52;51.58;100640.97;5037499;28;1067;-47
2024/03/31 12:27:46;;;;;;;;;;;;;;;16.45;51.60;100638.88;5036598;28;1150;-52
2024/03/31 12:30:11;;;;;;;;;;;;;;;16.33;51.78;100638.81;5037538;28;1083;-48
2024/03/31 12:32:37;;;;;;;;;;;;;;;16.25;51.74;100639.38;5036920;28;1887;-50
2024/03/31 12:35:04;;;;;;;;;;;;;;;16.21;52.20;100637.94;5037276;28;1147;-51
2024/03/31 12:37:30;;;;;;;;;;;;;;;16.18;51.79;100643.47;5037250;28;1347;-51
2024/03/31 12:39:56;;;;;;;;;;;;;;;16.13;51.98;100641.13;5046903;28;1235;-52
2024/03/31 12:42:30;;;;;;;;;;;;;;;17.23;50.48;100633.09;5035699;28;1233;-49